createdAt,value
2022-12-14T00:00:06.913Z,60.1
2022-12-14T00:02:05.678Z,60.2
2022-12-14T00:04:13.314Z,60.3
2022-12-14T00:06:06.742Z,60.4
2022-12-14T00:08:38.271Z,60.4
2022-12-14T00:10:06.910Z,60.3
2022-12-14T00:12:05.598Z,60.5
2022-12-14T00:14:05.603Z,60.6
2022-12-14T00:16:05.842Z,60.7
2022-12-14T00:18:12.791Z,60.6
2022-12-14T00:20:05.615Z,60.5
2022-12-14T00:22:06.969Z,60.5
2022-12-14T00:24:05.651Z,60.6
2022-12-14T00:26:07.577Z,60.6
2022-12-14T00:28:06.685Z,60.7
2022-12-14T00:29:42.545Z,60.7
2022-12-14T00:30:14.713Z,60.6
2022-12-14T00:32:05.616Z,60.6
2022-12-14T00:34:05.591Z,60.5
2022-12-14T00:36:05.678Z,60.7
2022-12-14T00:38:11.394Z,60.8
2022-12-14T00:40:06.668Z,60.8
2022-12-14T00:42:05.507Z,60.8
2022-12-14T00:44:05.496Z,60.9
2022-12-14T00:46:05.609Z,60.9
2022-12-14T00:48:05.501Z,60.9
2022-12-14T00:50:05.518Z,60.9
2022-12-14T00:52:05.600Z,61
2022-12-14T00:54:05.653Z,61
2022-12-14T00:56:05.506Z,61.1
2022-12-14T00:58:11.500Z,61
2022-12-14T01:00:09.998Z,61
2022-12-14T01:02:05.570Z,61
2022-12-14T01:04:05.572Z,61.1
2022-12-14T01:06:05.508Z,61.2
2022-12-14T01:08:05.446Z,61.3
2022-12-14T01:10:05.508Z,61.3
2022-12-14T01:12:05.865Z,61.4
2022-12-14T01:14:05.459Z,61.4
2022-12-14T01:16:05.486Z,61.4
2022-12-14T01:18:05.443Z,61.4
2022-12-14T01:20:05.436Z,61.3
2022-12-14T01:22:05.518Z,61.3
2022-12-14T01:24:05.621Z,61.3
2022-12-14T01:26:06.725Z,61.4
2022-12-14T01:28:07.178Z,61.4
2022-12-14T01:30:05.563Z,61.4
2022-12-14T01:32:05.482Z,61.4
2022-12-14T01:34:05.535Z,61.5
2022-12-14T01:36:05.516Z,61.5
2022-12-14T01:38:05.497Z,61.5
2022-12-14T01:40:06.513Z,61.5
2022-12-14T01:42:06.095Z,61.7
2022-12-14T01:43:08.812Z,61.7
2022-12-14T01:44:33.852Z,61.8
2022-12-14T01:46:05.505Z,61.8
2022-12-14T01:48:05.535Z,61.9
2022-12-14T01:50:05.457Z,61.9
2022-12-14T01:52:05.587Z,62
2022-12-14T01:54:05.476Z,62.1
2022-12-14T01:56:05.457Z,62.1
2022-12-14T01:58:15.986Z,62.1
2022-12-14T02:00:07.494Z,62.1
2022-12-14T02:02:07.512Z,62.1
2022-12-14T02:04:05.399Z,62.2
2022-12-14T02:06:05.449Z,62.2
2022-12-14T02:08:05.469Z,62.3
2022-12-14T02:10:05.394Z,62.4
2022-12-14T02:12:05.855Z,62.4
2022-12-14T02:14:05.452Z,62.4
2022-12-14T02:16:05.465Z,62.4
2022-12-14T02:18:05.439Z,62.4
2022-12-14T02:20:05.370Z,62.2
2022-12-14T02:22:05.375Z,62.3
2022-12-14T02:24:05.461Z,62.4
2022-12-14T02:26:05.383Z,62.5
2022-12-14T02:28:05.494Z,62.5
2022-12-14T02:30:05.476Z,62.4
2022-12-14T02:32:13.131Z,62.5
2022-12-14T02:34:05.412Z,62.6
2022-12-14T02:36:05.398Z,62.6
2022-12-14T02:38:05.373Z,62.7
2022-12-14T02:40:05.400Z,62.7
2022-12-14T02:42:15.977Z,62.7
2022-12-14T02:44:05.427Z,62.8
2022-12-14T02:46:06.755Z,62.8
2022-12-14T02:48:05.482Z,62.8
2022-12-14T02:50:05.338Z,62.7
2022-12-14T02:52:05.345Z,62.8
2022-12-14T02:54:06.684Z,62.8
2022-12-14T02:56:05.355Z,62.8
2022-12-14T02:58:05.324Z,62.9
2022-12-14T03:00:05.407Z,62.8
2022-12-14T03:02:17.685Z,62.9
2022-12-14T03:04:05.348Z,63
2022-12-14T03:06:05.491Z,63
2022-12-14T03:08:05.385Z,63
2022-12-14T03:10:05.317Z,63
2022-12-14T03:12:06.767Z,63
2022-12-14T03:14:05.326Z,63
2022-12-14T03:16:05.401Z,63
2022-12-14T03:18:06.683Z,63.1
2022-12-14T03:20:05.312Z,63.1
2022-12-14T03:22:06.350Z,63.1
2022-12-14T03:24:05.480Z,63.1
2022-12-14T03:26:09.695Z,63.2
2022-12-14T03:28:05.370Z,63.3
2022-12-14T03:30:05.301Z,63.3
2022-12-14T03:32:05.368Z,63.4
2022-12-14T03:34:05.333Z,63.4
2022-12-14T03:36:05.427Z,63.5
2022-12-14T03:38:06.758Z,63.5
2022-12-14T03:38:48.810Z,63.5
2022-12-14T03:40:05.384Z,63.5
2022-12-14T03:42:05.330Z,63.6
2022-12-14T03:44:06.492Z,63.6
2022-12-14T03:46:05.405Z,63.6
2022-12-14T03:48:05.651Z,63.6
2022-12-14T03:50:11.167Z,63.5
2022-12-14T03:52:05.335Z,63.5
2022-12-14T03:54:05.329Z,63.5
2022-12-14T03:56:05.722Z,63.4
2022-12-14T03:58:05.394Z,63.4
2022-12-14T04:00:34.766Z,63.2
2022-12-14T04:02:05.459Z,63.3
2022-12-14T04:04:05.360Z,63.3
2022-12-14T04:06:06.508Z,63.3
2022-12-14T04:08:06.580Z,63.2
2022-12-14T04:10:05.357Z,63.2
2022-12-14T04:12:06.415Z,63.3
2022-12-14T04:14:05.373Z,63.3
2022-12-14T04:16:05.297Z,63.4
2022-12-14T04:18:05.286Z,63.4
2022-12-14T04:20:05.246Z,63.3
2022-12-14T04:22:05.302Z,63.3
2022-12-14T04:24:05.446Z,63.4
2022-12-14T04:26:05.294Z,63.4
2022-12-14T04:28:05.190Z,63.5
2022-12-14T04:30:05.281Z,63.4
2022-12-14T04:32:07.884Z,63.5
2022-12-14T04:34:05.221Z,63.6
2022-12-14T04:36:05.338Z,63.5
2022-12-14T04:38:05.321Z,63.5
2022-12-14T04:40:05.201Z,63.5
2022-12-14T04:42:05.266Z,63.5
2022-12-14T04:44:05.194Z,63.5
2022-12-14T04:46:06.859Z,63.6
2022-12-14T04:48:05.319Z,63.5
2022-12-14T04:50:07.685Z,63.4
2022-12-14T04:52:06.334Z,63.4
2022-12-14T04:54:05.578Z,63.5
2022-12-14T04:56:05.206Z,63.5
2022-12-14T04:58:05.217Z,63.6
2022-12-14T05:00:05.206Z,63.6
2022-12-14T05:02:05.396Z,63.6
2022-12-14T05:04:08.245Z,63.7
2022-12-14T05:06:09.589Z,63.8
2022-12-14T05:08:05.222Z,63.8
2022-12-14T05:10:05.191Z,63.8
2022-12-14T05:12:15.694Z,63.8
2022-12-14T05:14:05.183Z,63.8
2022-12-14T05:16:05.147Z,63.8
2022-12-14T05:18:05.228Z,63.8
2022-12-14T05:20:05.131Z,63.8
2022-12-14T05:22:05.186Z,63.9
2022-12-14T05:24:05.233Z,63.9
2022-12-14T05:26:05.130Z,64
2022-12-14T05:28:05.207Z,64.1
2022-12-14T05:30:05.276Z,64
2022-12-14T05:32:05.142Z,64
2022-12-14T05:34:05.128Z,64
2022-12-14T05:36:05.198Z,64
2022-12-14T05:38:05.112Z,64
2022-12-14T05:40:05.160Z,63.9
2022-12-14T05:42:05.181Z,63.9
2022-12-14T05:44:05.121Z,63.9
2022-12-14T05:46:09.544Z,63.9
2022-12-14T05:48:05.164Z,64
2022-12-14T05:50:05.059Z,64
2022-12-14T05:52:06.420Z,64
2022-12-14T05:54:05.131Z,64.1
2022-12-14T05:56:05.045Z,64.1
2022-12-14T05:58:06.449Z,64.2
2022-12-14T06:00:05.320Z,64.1
2022-12-14T06:02:27.912Z,64.2
2022-12-14T06:04:52.372Z,100
2022-12-14T06:06:06.160Z,64.3
2022-12-14T06:08:05.116Z,64.3
2022-12-14T06:10:05.108Z,64.3
2022-12-14T06:12:05.083Z,64.4
2022-12-14T06:14:05.099Z,64.4
2022-12-14T06:16:12.944Z,64.3
2022-12-14T06:18:06.386Z,64.3
2022-12-14T06:20:05.107Z,64.3
2022-12-14T06:22:05.075Z,64.4
2022-12-14T06:24:05.102Z,64.4
2022-12-14T06:26:05.071Z,64.3
2022-12-14T06:28:05.059Z,64.4
2022-12-14T06:30:05.122Z,64.4
2022-12-14T06:32:05.068Z,64.6
2022-12-14T06:34:06.291Z,64.7
2022-12-14T06:36:05.089Z,64.7
2022-12-14T06:38:04.982Z,64.7
2022-12-14T06:40:09.668Z,64.5
2022-12-14T06:42:05.382Z,64.5
2022-12-14T06:44:05.058Z,64.6
2022-12-14T06:46:07.536Z,64.6
2022-12-14T06:48:06.372Z,64.7
2022-12-14T06:50:04.958Z,64.7
2022-12-14T06:52:05.033Z,64.8
2022-12-14T06:54:05.055Z,64.8
2022-12-14T06:56:04.957Z,64.9
2022-12-14T06:58:05.055Z,64.8
2022-12-14T07:00:05.010Z,64.8
2022-12-14T07:02:07.148Z,64.8
2022-12-14T07:04:28.660Z,64.7
2022-12-14T07:06:05.103Z,64.7
2022-12-14T07:08:05.020Z,64.6
2022-12-14T07:10:05.025Z,64.5
2022-12-14T07:12:05.012Z,64.6
2022-12-14T07:14:05.036Z,64.6
2022-12-14T07:16:05.027Z,64.6
2022-12-14T07:18:05.060Z,64.6
2022-12-14T07:20:04.991Z,64.5
2022-12-14T07:22:06.321Z,64.6
2022-12-14T07:24:05.032Z,64.8
2022-12-14T07:26:05.011Z,64.8
2022-12-14T07:28:05.022Z,64.7
2022-12-14T07:30:05.004Z,64.6
2022-12-14T07:32:05.086Z,64.7
2022-12-14T07:34:07.574Z,64.8
2022-12-14T07:36:05.132Z,64.8
2022-12-14T07:38:05.019Z,64.9
2022-12-14T07:40:04.969Z,64.8
2022-12-14T07:42:04.982Z,64.9
2022-12-14T07:44:04.964Z,64.9
2022-12-14T07:46:05.040Z,64.9
2022-12-14T07:48:05.002Z,65
2022-12-14T07:50:05.025Z,64.9
2022-12-14T07:52:04.951Z,65
2022-12-14T07:54:28.758Z,65
2022-12-14T07:56:06.344Z,65.1
2022-12-14T07:58:04.965Z,65.1
2022-12-14T08:00:04.997Z,65
2022-12-14T08:02:05.146Z,65.1
2022-12-14T08:04:05.332Z,65.1
2022-12-14T08:06:06.494Z,65.1
2022-12-14T08:08:05.118Z,65.1
2022-12-14T08:10:05.092Z,65
2022-12-14T08:12:27.640Z,65
2022-12-14T08:14:05.005Z,65
2022-12-14T08:16:06.080Z,65
2022-12-14T08:18:04.984Z,65
2022-12-14T08:20:04.978Z,65
2022-12-14T08:22:06.179Z,65.1
2022-12-14T08:24:05.024Z,65.1
2022-12-14T08:26:04.944Z,65.1
2022-12-14T08:28:04.878Z,65.1
2022-12-14T08:30:04.919Z,65
2022-12-14T08:32:04.917Z,65
2022-12-14T08:34:04.920Z,65
2022-12-14T08:36:04.953Z,65.1
2022-12-14T08:38:04.917Z,65.1
2022-12-14T08:40:04.915Z,64.9
2022-12-14T08:42:04.923Z,64.8
2022-12-14T08:44:04.926Z,64.9
2022-12-14T08:46:04.856Z,65
2022-12-14T08:48:04.913Z,65
2022-12-14T08:50:04.863Z,64.9
2022-12-14T08:52:04.864Z,64.9
2022-12-14T08:54:04.859Z,65
2022-12-14T08:56:04.867Z,65
2022-12-14T08:58:04.959Z,65
2022-12-14T09:00:05.955Z,64.9
2022-12-14T09:02:05.035Z,65
2022-12-14T09:04:05.230Z,65
2022-12-14T09:06:04.976Z,65
2022-12-14T09:08:05.023Z,65
2022-12-14T09:10:04.885Z,64.9
2022-12-14T09:12:04.923Z,64.9
2022-12-14T09:14:04.945Z,64.9
2022-12-14T09:16:04.902Z,65
2022-12-14T09:18:04.865Z,65
2022-12-14T09:20:04.916Z,64.9
2022-12-14T09:22:06.220Z,65
2022-12-14T09:24:04.838Z,65.1
2022-12-14T09:26:04.887Z,65.2
2022-12-14T09:28:04.881Z,65.2
2022-12-14T09:30:04.878Z,65.2
2022-12-14T09:32:04.878Z,65.2
2022-12-14T09:34:07.377Z,65.2
2022-12-14T09:36:04.849Z,65.4
2022-12-14T09:38:04.788Z,65.4
2022-12-14T09:40:06.020Z,65.4
2022-12-14T09:42:04.912Z,65.5
2022-12-14T09:44:04.884Z,65.5
2022-12-14T09:46:04.881Z,65.5
2022-12-14T09:48:05.337Z,65.6
2022-12-14T09:50:04.823Z,65.4
2022-12-14T09:52:04.769Z,65.4
2022-12-14T09:54:04.796Z,65.4
2022-12-14T09:56:04.752Z,65.4
2022-12-14T09:58:07.817Z,65.5
2022-12-14T10:00:05.964Z,65.4
2022-12-14T10:02:31.244Z,65.3
2022-12-14T10:04:04.929Z,65.4
2022-12-14T10:06:04.878Z,65.5
2022-12-14T10:08:04.837Z,65.6
2022-12-14T10:10:04.825Z,65.6
2022-12-14T10:12:05.139Z,65.7
2022-12-14T10:14:04.798Z,65.7
2022-12-14T10:16:04.826Z,65.8
2022-12-14T10:18:04.769Z,65.8
2022-12-14T10:20:04.712Z,65.8
2022-12-14T10:22:04.725Z,65.7
2022-12-14T10:24:04.800Z,65.7
2022-12-14T10:26:04.727Z,65.7
2022-12-14T10:28:11.700Z,65.7
2022-12-14T10:30:06.536Z,65.6
2022-12-14T10:32:04.753Z,65.6
2022-12-14T10:34:06.519Z,65.6
2022-12-14T10:36:07.285Z,65.7
2022-12-14T10:38:04.689Z,65.7
2022-12-14T10:40:11.548Z,65.6
2022-12-14T10:42:04.782Z,65.6
2022-12-14T10:44:06.153Z,65.6
2022-12-14T10:46:08.666Z,65.7
2022-12-14T10:48:07.279Z,65.8
2022-12-14T10:50:06.129Z,65.8
2022-12-14T10:52:04.714Z,65.9
2022-12-14T10:54:05.931Z,66
2022-12-14T10:56:07.407Z,66
2022-12-14T10:58:04.715Z,66.1
2022-12-14T11:00:09.300Z,66
2022-12-14T11:02:04.961Z,66.1
2022-12-14T11:04:04.708Z,66.1
2022-12-14T11:06:05.798Z,66.2
2022-12-14T11:08:04.648Z,66.1
2022-12-14T11:10:04.653Z,66
2022-12-14T11:12:05.060Z,66
2022-12-14T11:14:06.298Z,66
2022-12-14T11:16:04.722Z,66.1
2022-12-14T11:18:04.871Z,66.1
2022-12-14T11:20:06.097Z,66.1
2022-12-14T11:22:04.694Z,66.2
2022-12-14T11:24:04.693Z,66.2
2022-12-14T11:26:04.628Z,66.2
2022-12-14T11:28:04.759Z,66.2
2022-12-14T11:30:04.684Z,66.1
2022-12-14T11:32:04.701Z,66.1
2022-12-14T11:34:04.659Z,66.1
2022-12-14T11:36:04.676Z,66.2
2022-12-14T11:38:04.672Z,66.3
2022-12-14T11:40:05.013Z,66.3
2022-12-14T11:42:06.086Z,66.3
2022-12-14T11:44:04.702Z,66.1
2022-12-14T11:46:06.315Z,66.1
2022-12-14T11:47:41.222Z,66.1
2022-12-14T11:48:06.180Z,66.2
2022-12-14T11:50:06.102Z,66.1
2022-12-14T11:52:06.046Z,66.2
2022-12-14T11:54:04.775Z,66.2
2022-12-14T11:56:04.760Z,66.3
2022-12-14T11:58:06.104Z,66.4
2022-12-14T12:00:06.025Z,66.3
2022-12-14T12:02:04.816Z,66.3
2022-12-14T12:04:04.720Z,66.2
2022-12-14T12:06:07.254Z,66.2
2022-12-14T12:08:04.633Z,66.1
2022-12-14T12:10:37.955Z,66.1
2022-12-14T12:11:45.645Z,66.1
2022-12-14T12:12:05.469Z,66.1
2022-12-14T12:14:05.850Z,66.2
2022-12-14T12:16:09.049Z,66.2
2022-12-14T12:18:31.938Z,66.4
2022-12-14T12:20:27.416Z,66.4
2022-12-14T12:22:08.890Z,66.3
2022-12-14T12:24:19.064Z,66.4
2022-12-14T12:26:04.606Z,66.4
2022-12-14T12:28:04.716Z,66.4
2022-12-14T12:30:04.615Z,66.3
2022-12-14T12:32:04.659Z,66.3
2022-12-14T12:34:04.691Z,66.4
2022-12-14T12:36:09.046Z,66.5
2022-12-14T12:38:04.699Z,66.5
2022-12-14T12:40:04.845Z,66.4
2022-12-14T12:42:05.503Z,66.5
2022-12-14T12:44:08.837Z,66.5
2022-12-14T12:46:16.709Z,66.6
2022-12-14T12:48:07.470Z,66.7
2022-12-14T12:50:04.598Z,66.6
2022-12-14T12:52:05.769Z,66.7
2022-12-14T12:54:04.608Z,66.7
2022-12-14T12:56:05.953Z,66.8
2022-12-14T12:58:07.462Z,66.7
2022-12-14T13:00:08.915Z,66.7
2022-12-14T13:02:04.661Z,66.7
2022-12-14T13:04:05.769Z,66.7
2022-12-14T13:06:14.988Z,66.8
2022-12-14T13:08:34.872Z,66.8
2022-12-14T13:10:06.005Z,66.8
2022-12-14T13:12:04.554Z,66.8
2022-12-14T13:14:04.572Z,66.8
2022-12-14T13:16:04.639Z,66.9
2022-12-14T13:18:12.198Z,66.9
2022-12-14T13:20:07.237Z,66.9
2022-12-14T13:22:33.809Z,66.9
2022-12-14T13:24:28.853Z,66.9
2022-12-14T13:26:06.600Z,66.9
2022-12-14T13:28:04.655Z,66.9
2022-12-14T13:30:04.581Z,66.8
2022-12-14T13:32:36.894Z,66.8
2022-12-14T13:34:32.270Z,66.9
2022-12-14T13:34:32.889Z,66.9
2022-12-14T13:36:34.701Z,66.9
2022-12-14T13:38:10.434Z,67
2022-12-14T13:39:10.630Z,67
2022-12-14T13:40:04.719Z,66.9
2022-12-14T13:42:08.934Z,66.9
2022-12-14T13:44:04.810Z,67
2022-12-14T13:46:04.879Z,67
2022-12-14T13:48:07.714Z,67
2022-12-14T13:50:34.575Z,67
2022-12-14T13:51:25.881Z,67
2022-12-14T13:52:05.643Z,67
2022-12-14T13:54:05.675Z,67.1
2022-12-14T13:56:04.472Z,67
2022-12-14T13:58:04.663Z,67.1
2022-12-14T14:00:06.014Z,67
2022-12-14T14:02:19.706Z,67.1
2022-12-14T14:04:04.597Z,67.1
2022-12-14T14:06:04.834Z,67.2
2022-12-14T14:06:52.705Z,67.2
2022-12-14T14:08:08.680Z,67.2
2022-12-14T14:10:06.618Z,67.2
2022-12-14T14:12:04.669Z,67.2
2022-12-14T14:14:04.470Z,67.3
2022-12-14T14:16:28.867Z,67.2
2022-12-14T14:18:05.152Z,67.3
2022-12-14T14:20:04.398Z,67.2
2022-12-14T14:22:23.205Z,67.3
2022-12-14T14:24:04.454Z,67.3
2022-12-14T14:26:14.707Z,67.3
2022-12-14T14:28:28.820Z,67.3
2022-12-14T14:30:04.574Z,67.2
2022-12-14T14:32:06.381Z,67.3
2022-12-14T14:34:05.846Z,67.3
2022-12-14T14:36:04.518Z,67.3
2022-12-14T14:38:04.493Z,67.3
2022-12-14T14:40:20.573Z,67.3
2022-12-14T14:42:06.267Z,67.3
2022-12-14T14:44:04.437Z,67.4
2022-12-14T14:46:04.630Z,67.3
2022-12-14T14:48:08.993Z,67.3
2022-12-14T14:50:04.448Z,67.4
2022-12-14T14:52:08.821Z,67.4
2022-12-14T14:55:21.542Z,67.5
2022-12-14T14:56:05.832Z,67.5
2022-12-14T14:58:04.462Z,67.5
2022-12-14T15:00:05.443Z,67.6
2022-12-14T15:02:04.450Z,67.7
2022-12-14T15:04:07.231Z,67.7
2022-12-14T15:06:08.755Z,67.8
2022-12-14T15:08:04.469Z,67.8
2022-12-14T15:10:31.659Z,67.7
2022-12-14T15:12:05.810Z,67.7
2022-12-14T15:14:04.419Z,67.7
2022-12-14T15:16:04.436Z,67.7
2022-12-14T15:18:08.543Z,67.6
2022-12-14T15:20:04.370Z,67.5
2022-12-14T15:22:06.965Z,67.6
2022-12-14T15:24:14.536Z,67.6
2022-12-14T15:26:04.401Z,67.6
2022-12-14T15:28:05.800Z,67.6
2022-12-14T15:30:06.403Z,67.4
2022-12-14T15:32:12.634Z,67.4
2022-12-14T15:34:05.773Z,67.2
2022-12-14T15:36:05.887Z,67.3
2022-12-14T15:38:06.622Z,67.3
2022-12-14T15:40:05.486Z,67.2
2022-12-14T15:42:06.242Z,67.2
2022-12-14T15:44:04.441Z,67.2
2022-12-14T15:46:13.821Z,67.2
2022-12-14T15:48:04.549Z,67
2022-12-14T15:50:07.204Z,67
2022-12-14T15:52:05.482Z,67
2022-12-14T15:54:14.825Z,67.1
2022-12-14T15:56:11.867Z,67.1
2022-12-14T15:58:06.799Z,67.1
2022-12-14T16:00:04.368Z,66.9
2022-12-14T16:02:07.794Z,66.9
2022-12-14T16:04:04.374Z,66.9
2022-12-14T16:05:50.156Z,66.9
2022-12-14T16:06:05.457Z,66.8
2022-12-14T16:08:05.654Z,66.7
2022-12-14T16:10:04.400Z,66.6
2022-12-14T16:12:04.369Z,66.6
2022-12-14T16:14:10.237Z,66.6
2022-12-14T16:16:06.342Z,66.5
2022-12-14T16:18:04.439Z,66.4
2022-12-14T16:20:07.038Z,65.8
2022-12-14T16:22:04.279Z,65.6
2022-12-14T16:24:05.906Z,65.5
2022-12-14T16:26:06.297Z,65.6
2022-12-14T16:28:06.803Z,65.6
2022-12-14T16:30:05.449Z,65.1
2022-12-14T16:32:28.850Z,65.3
2022-12-14T16:34:06.387Z,65
2022-12-14T16:36:04.395Z,64.9
2022-12-14T16:38:04.323Z,64.9
2022-12-14T16:40:04.300Z,64.8
2022-12-14T16:42:04.351Z,64.7
2022-12-14T16:44:05.454Z,64.8
2022-12-14T16:46:09.957Z,64.8
2022-12-14T16:48:04.402Z,64.8
2022-12-14T16:50:07.014Z,64.5
2022-12-14T16:52:08.152Z,64.5
2022-12-14T16:54:04.391Z,64.4
2022-12-14T16:54:28.709Z,64.4
2022-12-14T16:56:04.394Z,64.4
2022-12-14T16:58:08.838Z,63.7
2022-12-14T17:00:06.297Z,63.6
2022-12-14T17:02:11.606Z,63.7
2022-12-14T17:04:05.618Z,63.2
2022-12-14T17:06:18.720Z,64
2022-12-14T17:07:40.777Z,64
2022-12-14T17:08:06.256Z,64.1
2022-12-14T17:10:06.569Z,63.7
2022-12-14T17:12:04.337Z,63.9
2022-12-14T17:14:05.688Z,63.9
2022-12-14T17:16:09.885Z,63.7
2022-12-14T17:18:05.253Z,63.8
2022-12-14T17:20:13.748Z,63.5
2022-12-14T17:22:04.798Z,63.5
2022-12-14T17:24:04.285Z,63.1
2022-12-14T17:26:04.231Z,63
2022-12-14T17:28:04.225Z,62.7
2022-12-14T17:30:04.968Z,62.4
2022-12-14T17:32:27.036Z,62.4
2022-12-14T17:34:04.198Z,60.8
2022-12-14T17:34:34.685Z,60.8
2022-12-14T17:36:04.225Z,62.3
2022-12-14T17:38:04.588Z,62.2
2022-12-14T17:40:08.679Z,61.6
2022-12-14T17:42:04.215Z,62.2
2022-12-14T17:44:05.397Z,62.3
2022-12-14T17:46:30.773Z,62.1
2022-12-14T17:48:06.316Z,62.1
2022-12-14T17:50:05.335Z,62.1
2022-12-14T17:52:05.458Z,61.1
2022-12-14T17:54:08.665Z,61.3
2022-12-14T17:56:04.239Z,61.3
2022-12-14T17:58:18.562Z,61.6
2022-12-14T18:00:04.261Z,61.5
2022-12-14T18:02:04.431Z,61.6
2022-12-14T18:04:04.284Z,61.7
2022-12-14T18:06:04.248Z,61.6
2022-12-14T18:08:28.868Z,61.6
2022-12-14T18:10:05.315Z,61.4
2022-12-14T18:12:22.925Z,61.5
2022-12-14T18:14:05.468Z,60.4
2022-12-14T18:16:09.663Z,60.1
2022-12-14T18:18:04.251Z,60.5
2022-12-14T18:20:10.377Z,60.4
2022-12-14T18:22:04.261Z,60.6
2022-12-14T18:24:11.699Z,60.7
2022-12-14T18:26:12.642Z,60.7
2022-12-14T18:28:05.393Z,60.7
2022-12-14T18:30:05.780Z,60
2022-12-14T18:32:05.451Z,60.2
2022-12-14T18:34:04.218Z,60.3
2022-12-14T18:36:06.671Z,60.3
2022-12-14T18:38:10.131Z,60.4
2022-12-14T18:40:05.724Z,60.2
2022-12-14T18:43:01.740Z,60.3
2022-12-14T18:44:09.904Z,60.3
2022-12-14T18:45:46.846Z,60.3
2022-12-14T18:46:18.474Z,60.4
2022-12-14T18:48:04.131Z,60.4
2022-12-14T18:50:04.146Z,60.2
2022-12-14T18:52:05.229Z,60.2
2022-12-14T18:54:06.164Z,60.2
2022-12-14T18:56:04.252Z,60
2022-12-14T18:58:05.222Z,60
2022-12-14T19:00:04.077Z,59.8
2022-12-14T19:02:06.913Z,59.8
2022-12-14T19:04:04.285Z,59.9
2022-12-14T19:06:43.357Z,59.9
2022-12-14T19:08:04.184Z,59.9
2022-12-14T19:10:06.967Z,59.7
2022-12-14T19:12:04.145Z,59.8
2022-12-14T19:14:06.969Z,59.9
2022-12-14T19:16:05.194Z,59.9
2022-12-14T19:18:04.130Z,59.8
2022-12-14T19:20:14.541Z,59.5
2022-12-14T19:22:04.109Z,59.6
2022-12-14T19:24:11.873Z,59.6
2022-12-14T19:26:04.113Z,59.6
2022-12-14T19:28:37.481Z,59.6
2022-12-14T19:30:05.174Z,59.3
2022-12-14T19:32:05.929Z,59.4
2022-12-14T19:34:04.127Z,59.5
2022-12-14T19:36:04.096Z,59.5
2022-12-14T19:38:04.132Z,59.5
2022-12-14T19:40:07.704Z,59.2
2022-12-14T19:42:10.020Z,59.3
2022-12-14T19:44:04.064Z,59.3
2022-12-14T19:46:05.322Z,59.3
2022-12-14T19:48:14.700Z,59.3
2022-12-14T19:50:06.306Z,59.1
2022-12-14T19:52:05.383Z,59.2
2022-12-14T19:54:04.791Z,59.1
2022-12-14T19:56:06.739Z,59.1
2022-12-14T19:58:04.097Z,59.1
2022-12-14T20:00:37.950Z,58.9
2022-12-14T20:02:04.083Z,58.9
2022-12-14T20:04:04.155Z,59
2022-12-14T20:06:05.475Z,59
2022-12-14T20:08:04.027Z,59
2022-12-14T20:10:04.052Z,58.8
2022-12-14T20:12:04.084Z,58.9
2022-12-14T20:14:04.060Z,58.9
2022-12-14T20:16:06.599Z,59
2022-12-14T20:18:05.119Z,59
2022-12-14T20:19:42.841Z,59
2022-12-14T20:20:04.051Z,58.8
2022-12-14T20:22:05.286Z,58.8
2022-12-14T20:24:04.047Z,58.9
2022-12-14T20:26:04.013Z,58.9
2022-12-14T20:28:04.091Z,58.9
2022-12-14T20:30:11.638Z,58.6
2022-12-14T20:32:31.447Z,58.7
2022-12-14T20:34:05.098Z,58.7
2022-12-14T20:36:08.340Z,58.8
2022-12-14T20:38:08.506Z,58.8
2022-12-14T20:40:14.557Z,58.5
2022-12-14T20:42:03.990Z,58.6
2022-12-14T20:44:03.933Z,58.6
2022-12-14T20:46:04.079Z,58.6
2022-12-14T20:48:03.962Z,58.7
2022-12-14T20:50:05.555Z,58.4
2022-12-14T20:52:21.838Z,58.5
2022-12-14T20:54:04.214Z,58.6
2022-12-14T20:56:05.272Z,58.5
2022-12-14T20:58:04.076Z,58.5
2022-12-14T21:00:04.020Z,58.3
2022-12-14T21:02:04.304Z,58.5
2022-12-14T21:02:35.272Z,58.5
2022-12-14T21:04:05.175Z,58.5
2022-12-14T21:06:03.970Z,58.5
2022-12-14T21:08:03.944Z,58.5
2022-12-14T21:10:29.649Z,58.4
2022-12-14T21:12:05.270Z,58.5
2022-12-14T21:14:03.877Z,58.5
2022-12-14T21:16:03.875Z,58.5
2022-12-14T21:18:03.977Z,58.6
2022-12-14T21:20:04.233Z,58.4
2022-12-14T21:22:05.294Z,58.5
2022-12-14T21:24:04.027Z,58.6
2022-12-14T21:26:14.426Z,58.5
2022-12-14T21:28:03.893Z,58.5
2022-12-14T21:30:16.031Z,58.3
2022-12-14T21:32:28.793Z,58.4
2022-12-14T21:34:03.884Z,58.5
2022-12-14T21:36:05.854Z,58.6
2022-12-14T21:38:04.008Z,58.6
2022-12-14T21:40:03.972Z,58.5
2022-12-14T21:42:04.191Z,58.6
2022-12-14T21:44:08.194Z,58.6
2022-12-14T21:46:29.478Z,58.6
2022-12-14T21:48:14.405Z,58.6
2022-12-14T21:50:03.966Z,58.5
2022-12-14T21:52:34.511Z,58.6
2022-12-14T21:55:45.087Z,58.7
2022-12-14T21:55:45.095Z,100
2022-12-14T21:56:05.204Z,58.7
2022-12-14T21:58:30.935Z,58.7
2022-12-14T22:00:37.224Z,58.6
2022-12-14T22:02:25.183Z,58.6
2022-12-14T22:04:26.847Z,58.7
2022-12-14T22:06:08.344Z,58.7
2022-12-14T22:08:05.023Z,58.7
2022-12-14T22:10:09.908Z,58.6
2022-12-14T22:12:18.134Z,58.7
2022-12-14T22:14:29.594Z,58.8
2022-12-14T22:16:05.176Z,58.8
2022-12-14T22:18:29.740Z,58.8
2022-12-14T22:20:03.925Z,58.8
2022-12-14T22:22:03.904Z,58.9
2022-12-14T22:24:08.502Z,59
2022-12-14T22:26:03.855Z,59
2022-12-14T22:28:39.726Z,59.1
2022-12-14T22:30:04.156Z,58.9
2022-12-14T22:32:04.345Z,59
2022-12-14T22:33:05.837Z,59
2022-12-14T22:34:33.058Z,59.1
2022-12-14T22:36:03.873Z,59.1
2022-12-14T22:38:03.792Z,59
2022-12-14T22:40:04.864Z,58.9
2022-12-14T22:42:03.973Z,59
2022-12-14T22:44:09.722Z,59
2022-12-14T22:46:09.597Z,59.1
2022-12-14T22:48:26.460Z,59.1
2022-12-14T22:50:05.879Z,59
2022-12-14T22:52:04.958Z,59.1
2022-12-14T22:54:29.761Z,59.2
2022-12-14T22:56:03.825Z,59.2
2022-12-14T22:58:05.173Z,59.3
2022-12-14T23:00:18.220Z,59.1
2022-12-14T23:02:08.217Z,59.1
2022-12-14T23:04:03.867Z,59.2
2022-12-14T23:06:29.908Z,59.2
2022-12-14T23:08:08.315Z,59.1
2022-12-14T23:10:04.904Z,59
2022-12-14T23:12:40.190Z,59.1
2022-12-14T23:14:31.511Z,59.2
2022-12-14T23:16:03.809Z,59.3
2022-12-14T23:18:03.784Z,59.3
2022-12-14T23:20:05.011Z,59.2
2022-12-14T23:22:03.853Z,59.4
2022-12-14T23:24:03.726Z,59.4
2022-12-14T23:26:03.726Z,59.5
2022-12-14T23:28:10.038Z,59.5
2022-12-14T23:30:09.565Z,59.3
2022-12-14T23:32:03.810Z,59.5
2022-12-14T23:34:06.507Z,59.5
2022-12-14T23:36:05.915Z,59.6
2022-12-14T23:38:03.865Z,59.6
2022-12-14T23:40:20.487Z,59.4
2022-12-14T23:42:05.809Z,59.5
2022-12-14T23:44:03.823Z,59.5
2022-12-14T23:46:03.813Z,59.6
2022-12-14T23:48:04.933Z,59.6
2022-12-14T23:50:04.872Z,59.6
2022-12-14T23:52:07.934Z,59.7
2022-12-14T23:54:03.836Z,59.8
2022-12-14T23:56:03.728Z,59.8
2022-12-14T23:58:03.750Z,59.8
